Time;durP1;ratioP1;P1;durP2;ratioP2;P2;SDS_P1;SDS_P2;PMS_P1;PMS_P2;Temp;Humidity;BMP_temperature;BMP_pressure;BME280_temperature;BME280_humidity;BME280_pressure;Samples;Min_cycle;Max_cycle;Signal;HPM_P1;HPM_P2
2022/12/05 00:01:38;;;;;;;8.07;4.07;;;;;;;5.05;100.00;102074.19;5065615;28;20100;-84
2022/12/05 00:04:06;;;;;;;16.85;6.90;;;;;;;4.91;100.00;102054.88;5059871;28;20063;-83
2022/12/05 00:06:33;;;;;;;13.93;6.43;;;;;;;5.03;100.00;102065.59;5062486;28;20060;-82
2022/12/05 00:09:00;;;;;;;8.50;6.35;;;;;;;4.86;100.00;102038.59;5064970;28;20117;-83
2022/12/05 00:11:28;;;;;;;13.13;7.18;;;;;;;5.04;100.00;102047.19;5063321;28;20021;-83
2022/12/05 00:13:56;;;;;;;8.85;6.95;;;;;;;5.05;100.00;102069.84;5062125;28;20032;-83
2022/12/05 00:16:24;;;;;;;9.38;6.40;;;;;;;5.01;100.00;102042.13;5061072;28;20503;-83
2022/12/05 00:18:51;;;;;;;5.80;4.72;;;;;;;5.09;100.00;102065.25;5062110;28;20028;-82
2022/12/05 00:21:20;;;;;;;12.88;6.97;;;;;;;5.06;100.00;102054.97;5062933;28;20095;-83
2022/12/05 00:23:46;;;;;;;9.57;6.38;;;;;;;5.06;100.00;102053.19;5062555;28;20036;-83
2022/12/05 00:26:12;;;;;;;15.45;7.45;;;;;;;5.03;100.00;102042.03;5051824;28;20468;-83
2022/12/05 00:28:38;;;;;;;12.27;5.53;;;;;;;4.98;100.00;102017.91;5059203;28;20448;-83
2022/12/05 00:31:10;;;;;;;9.13;5.78;;;;;;;4.81;100.00;102003.13;5059982;28;20565;-83
2022/12/05 00:33:36;;;;;;;9.73;5.68;;;;;;;4.80;100.00;102001.47;5056388;28;20387;-82
2022/12/05 00:36:08;;;;;;;11.13;6.35;;;;;;;5.07;100.00;102046.16;5058090;28;20102;-83
2022/12/05 00:38:33;;;;;;;6.80;5.53;;;;;;;4.91;100.00;102010.41;5061782;28;20024;-83
2022/12/05 00:41:04;;;;;;;16.63;5.78;;;;;;;5.12;100.00;102052.03;5043684;28;20459;-82
2022/12/05 00:43:29;;;;;;;11.43;4.57;;;;;;;5.06;100.00;102061.03;5059513;28;20028;-83
2022/12/05 00:45:55;;;;;;;8.25;4.85;;;;;;;5.12;100.00;102041.56;5061541;28;20040;-83
2022/12/05 00:48:20;;;;;;;23.17;4.68;;;;;;;5.06;100.00;102034.88;5039939;28;20035;-84
2022/12/05 00:50:45;;;;;;;12.88;6.05;;;;;;;5.03;100.00;102026.34;5040992;28;20032;-83
2022/12/05 00:53:11;;;;;;;8.95;5.72;;;;;;;5.13;100.00;102046.69;5035564;28;20911;-84
2022/12/05 00:55:36;;;;;;;7.43;5.28;;;;;;;5.13;100.00;102041.44;5059476;28;20089;-82
2022/12/05 00:58:02;;;;;;;7.50;4.18;;;;;;;5.22;100.00;102055.78;5075777;28;20032;-83
2022/12/05 01:00:27;;;;;;;7.40;4.40;;;;;;;5.21;100.00;102056.72;5026252;28;20040;-83
2022/12/05 01:02:52;;;;;;;9.10;4.60;;;;;;;5.28;100.00;102049.38;5058509;28;20442;-83
2022/12/05 01:05:18;;;;;;;9.07;4.60;;;;;;;4.99;100.00;102017.84;5056948;28;20029;-83
2022/12/05 01:07:43;;;;;;;5.70;3.78;;;;;;;5.13;100.00;102020.50;5044771;28;20032;-83
2022/12/05 01:10:09;;;;;;;7.75;4.47;;;;;;;5.26;100.00;102044.22;5043562;28;20488;-83
2022/12/05 01:12:34;;;;;;;5.70;5.20;;;;;;;5.06;100.00;102028.81;5059354;28;20124;-83
2022/12/05 01:14:59;;;;;;;5.47;4.30;;;;;;;5.26;100.00;102053.84;5039868;28;20043;-84
2022/12/05 01:17:25;;;;;;;8.35;4.82;;;;;;;5.24;100.00;102040.84;5062437;28;20067;-83
2022/12/05 01:19:51;;;;;;;7.93;3.72;;;;;;;5.17;100.00;102031.66;5046614;28;20036;-83
2022/12/05 01:22:16;;;;;;;6.35;4.28;;;;;;;5.22;100.00;102042.69;5041512;28;20044;-84
2022/12/05 01:24:42;;;;;;;5.13;3.92;;;;;;;5.36;100.00;102061.09;5026012;28;20035;-82
2022/12/05 01:27:07;;;;;;;6.88;4.63;;;;;;;5.20;100.00;102047.19;5043162;28;20051;-83
2022/12/05 01:29:33;;;;;;;4.30;3.78;;;;;;;5.24;100.00;102053.94;5041307;28;20036;-81
2022/12/05 01:31:58;;;;;;;3.60;2.88;;;;;;;5.32;100.00;102071.84;5041348;28;20041;-82
2022/12/05 01:34:24;;;;;;;5.75;3.35;;;;;;;5.24;100.00;102059.16;5056308;28;20059;-82
2022/12/05 01:36:49;;;;;;;8.48;3.78;;;;;;;5.33;100.00;102069.16;5056151;28;20024;-83
2022/12/05 01:39:15;;;;;;;5.10;4.70;;;;;;;5.15;100.00;102047.44;5060454;28;20512;-83
2022/12/05 01:41:44;;;;;;;5.93;4.32;;;;;;;5.22;100.00;102050.56;5043170;28;20261;-83
2022/12/05 01:44:09;;;;;;;7.97;2.85;;;;;;;5.32;100.00;102075.28;5057944;28;20020;-84
2022/12/05 01:46:37;;;;;;;4.70;2.85;;;;;;;5.30;100.00;102058.81;5058145;28;20036;-82
2022/12/05 01:49:21;;;;;;;3.83;3.53;;;;;;;5.26;100.00;102051.25;5061862;28;20694;-84
2022/12/05 01:51:50;;;;;;;5.47;4.90;;;;;;;5.27;100.00;102050.28;5062885;28;20029;-84
2022/12/05 01:54:17;;;;;;;5.47;3.03;;;;;;;5.29;100.00;102057.16;5063005;28;20059;-83
2022/12/05 01:56:47;;;;;;;5.53;3.15;;;;;;;5.23;100.00;102035.72;5049361;28;20025;-82
2022/12/05 01:59:13;;;;;;;3.05;2.67;;;;;;;5.27;100.00;102040.69;5060609;28;20107;-83
2022/12/05 02:01:40;;;;;;;6.05;3.90;;;;;;;5.27;100.00;102043.31;5052072;28;20032;-83
2022/12/05 02:04:06;;;;;;;4.43;3.33;;;;;;;5.43;100.00;102072.06;5063709;28;20035;-83
2022/12/05 02:06:31;;;;;;;3.58;3.28;;;;;;;5.17;100.00;102052.59;5064211;28;20024;-83
2022/12/05 02:08:57;;;;;;;4.65;4.10;;;;;;;5.24;100.00;102051.31;5040842;28;20032;-82
2022/12/05 02:11:26;;;;;;;4.82;3.58;;;;;;;5.35;100.00;102064.63;5064479;28;20029;-82
2022/12/05 02:14:13;;;;;;;4.68;2.97;;;;;;;5.33;100.00;102058.69;5064024;28;20457;-82
2022/12/05 02:17:00;;;;;;;4.55;3.55;;;;;;;5.42;100.00;102056.44;5063357;28;20040;-83
2022/12/05 02:19:34;;;;;;;3.85;2.65;;;;;;;5.41;100.00;102055.59;5062265;28;20032;-83
2022/12/05 02:22:37;;;;;;;6.55;3.05;;;;;;;5.41;100.00;102053.00;5070289;28;20020;-82
2022/12/05 02:25:43;;;;;;;5.55;2.40;;;;;;;5.47;100.00;102059.66;5060543;28;20017;-82
2022/12/05 02:28:39;;;;;;;3.00;2.40;;;;;;;5.40;100.00;102053.06;5058906;28;20082;-83
2022/12/05 02:31:14;;;;;;;5.45;3.20;;;;;;;5.45;100.00;102048.44;5063955;28;20135;-81
2022/12/05 02:33:57;;;;;;;4.10;3.13;;;;;;;5.44;100.00;102047.56;5065137;28;20601;-82
2022/12/05 02:36:40;;;;;;;3.05;2.72;;;;;;;5.28;100.00;102033.69;5062284;28;20141;-82
2022/12/05 02:39:23;;;;;;;2.70;2.35;;;;;;;5.40;100.00;102047.84;5062341;28;20060;-83
2022/12/05 02:41:55;;;;;;;2.03;1.83;;;;;;;5.38;100.00;102041.84;5059851;28;20028;-84
2022/12/05 02:44:41;;;;;;;4.30;2.72;;;;;;;5.33;100.00;102037.72;5062399;28;20028;-83
2022/12/05 02:47:08;;;;;;;2.92;2.13;;;;;;;5.40;100.00;102050.44;5059710;28;20469;-83
2022/12/05 02:49:36;;;;;;;1.88;1.75;;;;;;;5.38;100.00;102060.16;5061268;28;20021;-83
2022/12/05 02:52:06;;;;;;;3.60;2.53;;;;;;;5.25;100.00;102031.25;5061540;28;20037;-84
2022/12/05 02:54:39;;;;;;;5.85;3.53;;;;;;;5.26;100.00;102046.84;5054148;28;20147;-83
2022/12/05 02:57:04;;;;;;;3.25;1.75;;;;;;;5.34;100.00;102051.66;5059437;28;20085;-83
2022/12/05 02:59:30;;;;;;;3.05;2.80;;;;;;;5.31;100.00;102050.06;5061793;28;20480;-82
2022/12/05 03:01:56;;;;;;;3.25;2.33;;;;;;;5.43;100.00;102064.22;5063457;28;20411;-83
2022/12/05 03:04:24;;;;;;;4.97;3.55;;;;;;;5.31;100.00;102050.06;5060359;28;20033;-83
2022/12/05 03:06:56;;;;;;;2.20;1.98;;;;;;;5.43;100.00;102058.16;5059226;28;20051;-83
2022/12/05 03:09:40;;;;;;;3.08;2.78;;;;;;;5.31;100.00;102057.03;5061607;28;20035;-83
2022/12/05 03:12:25;;;;;;;3.08;2.20;;;;;;;5.22;100.00;102050.56;5066161;28;20153;-83
2022/12/05 03:15:01;;;;;;;2.38;2.17;;;;;;;5.08;100.00;102029.56;5060138;28;20074;-82
2022/12/05 03:17:32;;;;;;;3.38;2.58;;;;;;;5.20;100.00;102026.25;5062203;28;20055;-82
2022/12/05 03:20:07;;;;;;;4.57;2.65;;;;;;;5.30;100.00;102058.81;5062197;28;20025;-82
2022/12/05 03:22:50;;;;;;;5.78;4.25;;;;;;;5.18;100.00;102033.31;5058427;28;20832;-84
2022/12/05 03:25:16;;;;;;;4.43;2.92;;;;;;;5.13;100.00;102030.13;5062205;28;20087;-81
2022/12/05 03:27:51;;;;;;;5.05;4.65;;;;;;;5.21;100.00;102053.28;5046017;28;20805;-84
2022/12/05 03:30:20;;;;;;;2.92;2.65;;;;;;;5.22;100.00;102061.03;5058053;28;20071;-84
2022/12/05 03:33:16;;;;;;;5.07;3.78;;;;;;;5.24;100.00;102063.56;5057939;28;20059;-83
2022/12/05 03:36:05;;;;;;;2.38;1.98;;;;;;;5.28;100.00;102065.91;5060592;28;20047;-82
2022/12/05 03:38:44;;;;;;;3.97;3.55;;;;;;;5.28;100.00;102065.91;5057172;28;20032;-83
2022/12/05 03:41:30;;;;;;;3.92;3.05;;;;;;;5.23;100.00;102047.03;5058658;28;20487;-83
2022/12/05 03:44:00;;;;;;;5.30;4.95;;;;;;;5.23;100.00;102057.50;5058267;28;20051;-83
2022/12/05 03:46:27;;;;;;;6.93;3.10;;;;;;;5.16;100.00;102056.13;5059571;28;20571;-83
2022/12/05 03:49:19;;;;;;;4.05;2.42;;;;;;;5.27;100.00;102068.63;5058896;28;20044;-83
2022/12/05 03:52:05;;;;;;;6.32;4.95;;;;;;;5.16;100.00;102066.59;5054763;28;20090;-83
2022/12/05 03:54:56;;;;;;;2.25;2.15;;;;;;;5.15;100.00;102057.91;5064309;28;20078;-83
2022/12/05 03:57:31;;;;;;;5.67;3.20;;;;;;;5.21;100.00;102058.50;5060341;28;20025;-84
2022/12/05 04:00:03;;;;;;;9.93;2.63;;;;;;;5.09;100.00;102036.47;5062036;28;20321;-83
2022/12/05 04:03:02;;;;;;;4.50;3.05;;;;;;;5.25;100.00;102071.34;5062670;28;20028;-83
2022/12/05 04:05:40;;;;;;;4.07;3.08;;;;;;;5.21;100.00;102064.59;5061122;28;20027;-83
2022/12/05 04:08:19;;;;;;;7.43;4.20;;;;;;;5.08;100.00;102040.03;5058779;28;20043;-82
2022/12/05 04:10:48;;;;;;;4.95;4.50;;;;;;;5.20;100.00;102062.03;5061194;28;20131;-82
2022/12/05 04:13:31;;;;;;;5.30;2.95;;;;;;;5.30;100.00;102071.09;5064933;28;20033;-84
2022/12/05 04:18:57;;;;;;;13.77;11.45;;;;;;;5.18;100.00;102067.34;5059668;28;20561;-83
2022/12/05 04:21:38;;;;;;;4.20;3.50;;;;;;;5.16;100.00;102050.88;5061181;28;21024;-82
2022/12/05 04:27:08;;;;;;;3.58;3.20;;;;;;;5.12;100.00;102057.25;5062883;28;20043;-82
2022/12/05 04:29:41;;;;;;;5.93;3.65;;;;;;;5.14;100.00;102040.53;5057480;28;20044;-83
2022/12/05 04:32:12;;;;;;;2.65;2.40;;;;;;;5.16;100.00;102045.66;5064245;28;20124;-84
2022/12/05 04:34:40;;;;;;;4.32;3.58;;;;;;;5.29;100.00;102085.94;5062622;28;20435;-82
2022/12/05 04:37:11;;;;;;;6.90;4.20;;;;;;;5.19;100.00;102049.91;5067572;28;20045;-84
2022/12/05 04:39:50;;;;;;;4.55;3.45;;;;;;;5.31;100.00;102078.84;5059888;28;20091;-83
2022/12/05 04:42:28;;;;;;;10.77;4.10;;;;;;;5.32;100.00;102082.31;5063528;28;20028;-84
2022/12/05 04:45:00;;;;;;;3.70;3.22;;;;;;;5.38;100.00;102070.63;5060827;28;20025;-83
2022/12/05 04:47:31;;;;;;;6.38;4.35;;;;;;;5.30;100.00;102074.53;5063031;28;20025;-84
2022/12/05 04:49:58;;;;;;;4.50;3.08;;;;;;;5.43;100.00;102087.78;5079180;28;20075;-83
2022/12/05 04:52:27;;;;;;;4.03;3.72;;;;;;;5.33;100.00;102073.50;5066237;28;20039;-83
2022/12/05 04:55:02;;;;;;;6.88;4.10;;;;;;;5.39;100.00;102093.28;5062031;28;20029;-83
2022/12/05 04:57:59;;;;;;;7.22;3.58;;;;;;;5.46;100.00;102097.25;5051830;28;20022;-82
2022/12/05 05:00:28;;;;;;;4.32;3.67;;;;;;;5.48;100.00;102098.00;5053648;28;20064;-84
2022/12/05 05:03:06;;;;;;;5.70;4.03;;;;;;;5.39;100.00;102090.66;5060821;28;20028;-84
2022/12/05 05:05:33;;;;;;;4.35;3.72;;;;;;;5.28;100.00;102070.31;5058520;28;21773;-82
2022/12/05 05:07:59;;;;;;;4.03;3.00;;;;;;;5.36;100.00;102079.44;5056937;28;20083;-81
2022/12/05 05:10:56;;;;;;;6.40;3.85;;;;;;;5.45;100.00;102087.72;5048000;28;20120;-83
2022/12/05 05:13:22;;;;;;;7.00;4.03;;;;;;;5.42;100.00;102082.63;5056135;28;20048;-82
2022/12/05 05:15:47;;;;;;;3.67;2.88;;;;;;;5.21;100.00;102061.97;5059432;28;20507;-83
2022/12/05 05:18:13;;;;;;;4.70;2.92;;;;;;;5.39;100.00;102088.03;5040712;28;20032;-82
2022/12/05 05:20:38;;;;;;;3.78;3.42;;;;;;;5.32;100.00;102080.53;5064763;28;20037;-83
2022/12/05 05:23:03;;;;;;;5.55;3.30;;;;;;;5.36;100.00;102084.66;5049766;28;20040;-82
2022/12/05 05:25:29;;;;;;;6.63;4.28;;;;;;;5.43;100.00;102100.88;5058101;28;20119;-83
2022/12/05 05:27:55;;;;;;;3.15;2.65;;;;;;;5.47;100.00;102096.31;5064832;28;20033;-82
2022/12/05 05:30:23;;;;;;;4.07;3.67;;;;;;;5.47;100.00;102091.09;5068656;28;20029;-83
2022/12/05 05:32:48;;;;;;;3.28;2.55;;;;;;;5.32;100.00;102077.91;5066365;28;20031;-83
2022/12/05 05:35:15;;;;;;;5.38;3.33;;;;;;;5.46;100.00;102097.25;5065850;28;20032;-83
2022/12/05 05:37:40;;;;;;;5.35;3.63;;;;;;;5.39;100.00;102088.03;5052206;28;20037;-83
2022/12/05 05:40:08;;;;;;;3.20;2.90;;;;;;;5.55;100.00;102104.56;5065671;28;20067;-83
2022/12/05 05:42:34;;;;;;;2.47;2.28;;;;;;;5.43;100.00;102089.56;5066358;28;20086;-83
2022/12/05 05:44:59;;;;;;;4.38;3.85;;;;;;;5.51;100.00;102098.69;5048383;28;20024;-83
2022/12/05 05:47:25;;;;;;;3.38;2.97;;;;;;;5.53;100.00;102104.69;5066131;28;20040;-83
2022/12/05 05:49:50;;;;;;;4.25;2.15;;;;;;;5.53;100.00;102103.81;5049905;28;20074;-84
2022/12/05 05:52:15;;;;;;;3.42;3.03;;;;;;;5.49;100.00;102100.53;5065853;28;20062;-84
2022/12/05 05:54:41;;;;;;;4.13;3.30;;;;;;;5.48;100.00;102103.22;5062805;28;20032;-84
2022/12/05 05:57:06;;;;;;;3.83;2.95;;;;;;;5.31;100.00;102075.38;5068464;28;20037;-84
2022/12/05 05:59:32;;;;;;;3.95;3.30;;;;;;;5.47;100.00;102101.56;5063066;28;20048;-84
2022/12/05 06:01:57;;;;;;;6.25;3.80;;;;;;;5.23;100.00;102067.97;5048292;28;20124;-84
2022/12/05 06:04:23;;;;;;;4.65;2.05;;;;;;;5.32;100.00;102077.06;5063370;28;20074;-84
2022/12/05 06:06:48;;;;;;;2.90;2.30;;;;;;;5.43;100.00;102100.03;5056738;28;20109;-84
2022/12/05 06:09:13;;;;;;;6.50;5.90;;;;;;;5.36;100.00;102100.38;5068261;28;20028;-83
2022/12/05 06:11:39;;;;;;;3.58;3.28;;;;;;;5.33;100.00;102102.31;5069010;28;20432;-84
2022/12/05 06:14:04;;;;;;;4.47;2.97;;;;;;;5.34;100.00;102102.22;5056670;28;20036;-84
2022/12/05 06:16:30;;;;;;;4.13;3.78;;;;;;;5.32;100.00;102106.72;5062858;28;20101;-83
2022/12/05 06:18:56;;;;;;;4.70;3.33;;;;;;;5.32;100.00;102084.94;5071091;28;20020;-84
2022/12/05 06:21:22;;;;;;;3.03;2.80;;;;;;;5.27;100.00;102085.19;5047704;28;20032;-84
2022/12/05 06:23:48;;;;;;;4.85;2.65;;;;;;;5.46;100.00;102105.09;5064566;28;20036;-84
2022/12/05 06:26:17;;;;;;;3.50;3.00;;;;;;;5.39;100.00;102098.53;5063738;28;20048;-85
2022/12/05 06:28:44;;;;;;;2.67;2.40;;;;;;;5.11;100.00;102076.47;5065352;28;20419;-85
2022/12/05 06:31:21;;;;;;;6.25;4.45;;;;;;;5.24;100.00;102101.03;5047565;28;20032;-84
2022/12/05 06:33:47;;;;;;;3.22;2.92;;;;;;;5.27;100.00;102108.75;5061495;28;20024;-90
2022/12/05 06:36:15;;;;;;;8.43;3.55;;;;;;;5.22;100.00;102089.81;5047248;28;20051;-83
2022/12/05 06:38:41;;;;;;;4.10;3.80;;;;;;;5.26;100.00;102101.81;5061296;28;20481;-82
2022/12/05 06:41:08;;;;;;;6.20;4.13;;;;;;;5.39;100.00;102117.69;5059461;28;20032;-82
2022/12/05 06:43:34;;;;;;;4.25;3.40;;;;;;;5.33;100.00;102095.31;5059133;28;20028;-81
2022/12/05 06:46:03;;;;;;;8.50;3.72;;;;;;;5.22;100.00;102094.22;5045427;28;20035;-81
2022/12/05 06:48:29;;;;;;;4.38;3.55;;;;;;;5.35;100.00;102108.31;5064593;28;20081;-81
2022/12/05 06:50:54;;;;;;;3.70;3.03;;;;;;;5.30;100.00;102107.72;5058445;28;20336;-81
2022/12/05 06:53:19;;;;;;;5.13;2.85;;;;;;;5.26;100.00;102096.56;5061608;28;20030;-80
2022/12/05 06:55:55;;;;;;;4.13;3.35;;;;;;;5.35;100.00;102098.66;5039164;28;20085;-81
2022/12/05 06:58:20;;;;;;;3.10;2.80;;;;;;;5.18;100.00;102077.81;5064306;28;20814;-81
2022/12/05 07:03:30;;;;;;;2.90;2.60;;;;;;;5.41;100.00;102113.22;5057783;28;20110;-80
2022/12/05 07:05:59;;;;;;;2.72;2.53;;;;;;;5.30;100.00;102090.25;5041931;28;20040;-81
2022/12/05 07:08:25;;;;;;;5.00;3.63;;;;;;;5.07;100.00;102051.41;5055476;28;20093;-80
2022/12/05 07:10:51;;;;;;;2.83;2.38;;;;;;;5.37;100.00;102103.84;5057645;28;20115;-80
2022/12/05 07:13:16;;;;;;;3.78;3.47;;;;;;;5.40;100.00;102105.44;5059940;28;20028;-81
2022/12/05 07:15:42;;;;;;;7.05;3.15;;;;;;;5.47;100.00;102098.94;5059823;28;20032;-80
2022/12/05 07:18:07;;;;;;;12.93;3.75;;;;;;;5.49;100.00;102102.31;5043078;28;20025;-81
2022/12/05 07:20:32;;;;;;;5.28;3.53;;;;;;;5.38;100.00;102070.63;5040630;28;20166;-81
2022/12/05 07:22:58;;;;;;;2.80;2.50;;;;;;;5.45;100.00;102090.34;5026157;28;20106;-81
2022/12/05 07:25:23;;;;;;;9.77;2.00;;;;;;;5.47;100.00;102085.84;5026163;28;20109;-81
2022/12/05 07:27:49;;;;;;;7.35;3.22;;;;;;;5.51;100.00;102100.47;5027130;28;20048;-79
2022/12/05 07:30:14;;;;;;;2.45;2.17;;;;;;;5.46;100.00;102084.97;5041334;28;20053;-80
2022/12/05 07:32:40;;;;;;;2.22;2.03;;;;;;;5.45;100.00;102083.31;5055164;28;20293;-80
2022/12/05 07:35:05;;;;;;;3.20;2.38;;;;;;;5.44;100.00;102076.38;5042816;28;20028;-81
2022/12/05 07:37:31;;;;;;;3.50;3.13;;;;;;;5.42;100.00;102066.91;5042421;28;20045;-80
2022/12/05 07:39:56;;;;;;;2.42;2.22;;;;;;;5.55;100.00;102083.63;5059549;28;20082;-81
2022/12/05 07:42:21;;;;;;;5.35;3.15;;;;;;;5.45;100.00;102066.75;5058319;28;20024;-81
2022/12/05 07:44:47;;;;;;;6.35;2.70;;;;;;;5.54;100.00;102082.78;5056096;28;20029;-81
2022/12/05 07:47:12;;;;;;;9.65;2.85;;;;;;;5.49;100.00;102078.75;5058741;28;20040;-82
2022/12/05 07:49:37;;;;;;;3.35;2.38;;;;;;;5.35;100.00;102071.66;5040216;28;20128;-82
2022/12/05 07:52:03;;;;;;;2.70;2.30;;;;;;;5.43;100.00;102061.59;5025578;28;20083;-80
2022/12/05 07:54:28;;;;;;;6.75;4.13;;;;;;;5.66;100.00;102090.88;5040628;28;20516;-81
2022/12/05 07:56:54;;;;;;;5.13;4.32;;;;;;;5.46;100.00;102086.75;5056903;28;20074;-81
2022/12/05 07:59:19;;;;;;;2.65;2.00;;;;;;;5.50;100.00;102080.44;5058364;28;20028;-83
2022/12/05 08:01:45;;;;;;;2.53;2.42;;;;;;;5.38;100.00;102086.34;5058638;28;20399;-81
2022/12/05 08:04:11;;;;;;;5.00;3.70;;;;;;;5.45;100.00;102092.94;5040976;28;20547;-82
2022/12/05 08:06:36;;;;;;;6.10;3.03;;;;;;;5.45;100.00;102079.84;5058660;28;20418;-82
2022/12/05 08:09:02;;;;;;;3.88;2.88;;;;;;;5.47;100.00;102096.31;5056358;28;20048;-81
2022/12/05 08:11:33;;;;;;;6.50;3.15;;;;;;;5.50;100.00;102088.28;5058847;28;20074;-81
2022/12/05 08:13:59;;;;;;;2.13;1.85;;;;;;;5.53;100.00;102095.94;5058343;28;20025;-81
2022/12/05 08:16:27;;;;;;;4.43;2.85;;;;;;;5.33;100.00;102066.53;5041253;28;20078;-81
2022/12/05 08:19:01;;;;;;;2.33;2.13;;;;;;;5.54;100.00;102093.25;5064185;28;20102;-81
2022/12/05 08:21:27;;;;;;;3.67;2.75;;;;;;;5.48;100.00;102096.22;5056976;28;20537;-81
2022/12/05 08:23:53;;;;;;;5.05;1.85;;;;;;;5.43;100.00;102074.69;5056973;28;20024;-81
2022/12/05 08:26:26;;;;;;;4.90;2.42;;;;;;;5.36;100.00;102079.44;5057470;28;20040;-82
2022/12/05 08:28:54;;;;;;;2.55;2.20;;;;;;;5.38;100.00;102081.09;5057287;28;20044;-82
2022/12/05 08:31:22;;;;;;;2.78;2.08;;;;;;;5.54;100.00;102098.50;5056344;28;20099;-81
2022/12/05 08:33:49;;;;;;;4.22;2.10;;;;;;;5.41;100.00;102080.94;5064876;28;20376;-82
2022/12/05 08:36:14;;;;;;;5.32;3.72;;;;;;;5.55;100.00;102097.59;5042153;28;20393;-81
2022/12/05 08:38:40;;;;;;;4.15;2.75;;;;;;;5.35;100.00;102082.97;5056899;28;20028;-81
2022/12/05 08:41:09;;;;;;;2.42;2.22;;;;;;;5.52;100.00;102102.13;5056693;28;20123;-82
2022/12/05 08:43:35;;;;;;;5.13;3.33;;;;;;;5.51;100.00;102106.53;5058010;28;20103;-82
2022/12/05 08:46:01;;;;;;;6.53;5.75;;;;;;;5.49;100.00;102100.53;5058065;28;20033;-81
2022/12/05 08:48:27;;;;;;;4.13;2.17;;;;;;;5.49;100.00;102104.94;5056309;28;20369;-82
2022/12/05 08:50:53;;;;;;;3.20;2.60;;;;;;;5.59;100.00;102095.63;5058084;28;20082;-81
2022/12/05 08:53:18;;;;;;;4.00;2.60;;;;;;;5.57;100.00;102092.22;5042124;28;20455;-82
2022/12/05 08:55:47;;;;;;;4.93;2.42;;;;;;;5.62;100.00;102105.94;5039528;28;20028;-82
2022/12/05 08:58:13;;;;;;;2.72;2.22;;;;;;;5.53;100.00;102096.81;5056885;28;20447;-82
2022/12/05 09:00:40;;;;;;;9.02;4.30;;;;;;;5.51;100.00;102090.81;5047408;28;20025;-82
2022/12/05 09:03:06;;;;;;;6.15;2.80;;;;;;;5.38;100.00;102071.50;5055576;28;20865;-82
2022/12/05 09:05:31;;;;;;;10.18;3.03;;;;;;;5.55;100.00;102089.72;5057909;28;20055;-82
2022/12/05 09:07:58;;;;;;;4.38;2.80;;;;;;;5.69;100.00;102102.03;5039393;28;20079;-82
2022/12/05 09:10:23;;;;;;;5.88;4.10;;;;;;;5.72;100.00;102096.59;5058594;28;20024;-82
2022/12/05 09:12:50;;;;;;;4.75;2.80;;;;;;;5.63;100.00;102106.78;5057618;28;20039;-83
2022/12/05 09:15:16;;;;;;;4.05;2.58;;;;;;;5.65;100.00;102092.66;5040592;28;20055;-81
2022/12/05 09:17:41;;;;;;;4.25;2.72;;;;;;;5.62;100.00;102086.72;5056680;28;20037;-81
2022/12/05 09:20:07;;;;;;;4.85;2.97;;;;;;;5.78;100.00;102096.25;5057880;28;20044;-82
2022/12/05 09:22:33;;;;;;;6.93;3.63;;;;;;;5.62;100.00;102084.97;5041442;28;20028;-81
2022/12/05 09:24:59;;;;;;;3.88;1.77;;;;;;;5.69;100.00;102090.72;5057543;28;20036;-82
2022/12/05 09:27:27;;;;;;;3.67;2.53;;;;;;;5.73;100.00;102097.47;5058130;28;20127;-82
2022/12/05 09:29:52;;;;;;;6.82;3.13;;;;;;;5.75;100.00;102096.44;5047860;28;20157;-82
2022/12/05 09:32:18;;;;;;;4.88;3.97;;;;;;;5.87;100.00;102110.59;5055962;28;20029;-82
2022/12/05 09:34:43;;;;;;;4.03;3.13;;;;;;;5.77;100.00;102104.22;5057858;28;20036;-82
2022/12/05 09:37:08;;;;;;;9.52;3.03;;;;;;;5.96;100.00;102122.34;5057567;28;20028;-82
2022/12/05 09:39:34;;;;;;;8.45;3.35;;;;;;;5.77;100.00;102085.88;5055292;28;20095;-82
2022/12/05 09:42:27;;;;;;;5.70;2.45;;;;;;;5.68;100.00;102089.00;5056844;28;20063;-81
2022/12/05 09:45:01;;;;;;;6.57;3.53;;;;;;;5.74;100.00;102112.25;5058087;28;20086;-82
2022/12/05 09:47:35;;;;;;;4.90;3.47;;;;;;;5.75;100.00;102114.78;5064541;28;20032;-81
2022/12/05 09:50:22;;;;;;;6.85;3.35;;;;;;;5.67;100.00;102103.06;5055430;28;20045;-82
2022/12/05 09:53:09;;;;;;;4.68;3.15;;;;;;;5.65;100.00;102121.47;5054878;28;20036;-82
2022/12/05 09:55:46;;;;;;;5.03;4.00;;;;;;;5.74;100.00;102123.56;5056202;28;20499;-81
2022/12/05 09:58:39;;;;;;;3.70;3.20;;;;;;;5.72;100.00;102120.19;5057645;28;20163;-81
2022/12/05 10:01:35;;;;;;;4.75;3.15;;;;;;;5.74;100.00;102126.16;5056691;28;20037;-81
2022/12/05 10:04:22;;;;;;;6.60;2.92;;;;;;;5.74;100.00;102126.16;5056791;28;20028;-82
2022/12/05 10:07:15;;;;;;;3.75;2.95;;;;;;;5.61;100.00;102108.63;5057316;28;20031;-81
2022/12/05 10:09:58;;;;;;;8.15;3.30;;;;;;;5.74;100.00;102120.94;5061495;28;20546;-81
2022/12/05 10:12:29;;;;;;;3.53;3.00;;;;;;;5.70;100.00;102127.28;5060183;28;20081;-82
2022/12/05 10:15:33;;;;;;;4.05;2.70;;;;;;;5.68;100.00;102115.19;5059652;28;20032;-82
2022/12/05 10:18:04;;;;;;;6.40;3.30;;;;;;;5.55;100.00;102094.09;5055550;28;20037;-81
2022/12/05 10:21:10;;;;;;;5.82;3.78;;;;;;;5.55;100.00;102107.19;5060604;28;20024;-81
2022/12/05 10:23:38;;;;;;;5.13;3.42;;;;;;;5.58;100.00;102120.13;5058158;28;20033;-83
2022/12/05 10:26:06;;;;;;;2.65;2.05;;;;;;;5.67;100.00;102113.53;5058869;28;20190;-82
2022/12/05 10:28:41;;;;;;;8.68;3.05;;;;;;;5.56;100.00;102090.56;5060554;28;20047;-81
2022/12/05 10:31:13;;;;;;;8.50;3.17;;;;;;;5.66;100.00;102115.31;5060754;28;20047;-81
2022/12/05 10:33:46;;;;;;;3.88;2.35;;;;;;;5.49;100.00;102094.47;5060425;28;20416;-82
2022/12/05 10:36:13;;;;;;;7.10;4.93;;;;;;;5.50;100.00;102096.13;5058956;28;20027;-81
2022/12/05 10:38:40;;;;;;;5.47;3.55;;;;;;;5.51;100.00;102098.69;5060063;28;20033;-81
2022/12/05 10:41:08;;;;;;;4.28;2.75;;;;;;;5.65;100.00;102105.75;5067049;28;20016;-82
2022/12/05 10:43:38;;;;;;;4.60;3.30;;;;;;;5.65;100.00;102116.22;5060284;28;20033;-81
2022/12/05 10:46:04;;;;;;;12.35;3.80;;;;;;;5.49;100.00;102084.00;5061633;28;20431;-82
2022/12/05 10:48:35;;;;;;;2.90;1.65;;;;;;;5.72;100.00;102122.78;5058512;28;20068;-81
2022/12/05 10:51:02;;;;;;;6.43;2.97;;;;;;;5.58;100.00;102104.41;5059158;28;20023;-82
2022/12/05 10:53:42;;;;;;;3.20;2.35;;;;;;;5.67;100.00;102111.75;5059223;28;20028;-82
2022/12/05 10:56:45;;;;;;;3.90;2.72;;;;;;;5.56;100.00;102111.50;5060051;28;20403;-81
2022/12/05 10:59:17;;;;;;;7.78;3.47;;;;;;;5.62;100.00;102103.31;5058945;28;20036;-81
2022/12/05 11:01:46;;;;;;;23.65;22.23;;;;;;;5.53;100.00;102077.63;5060236;28;20033;-83
2022/12/05 11:04:25;;;;;;;4.13;2.22;;;;;;;5.45;100.00;102082.47;5057119;28;20025;-81
2022/12/05 11:06:55;;;;;;;3.38;1.90;;;;;;;5.50;100.00;102085.66;5059621;28;20024;-81
2022/12/05 11:09:32;;;;;;;3.80;3.50;;;;;;;5.58;100.00;102088.69;5058928;28;20071;-81
2022/12/05 11:12:21;;;;;;;6.70;2.92;;;;;;;5.65;100.00;102099.66;5059419;28;20107;-82
2022/12/05 11:14:54;;;;;;;3.42;1.85;;;;;;;5.49;100.00;102084.81;5060091;28;20021;-81
2022/12/05 11:17:28;;;;;;;4.07;2.13;;;;;;;5.66;100.00;102101.34;5059101;28;20033;-82
2022/12/05 11:19:53;;;;;;;4.03;2.00;;;;;;;5.48;100.00;102090.16;5058474;28;20646;-82
2022/12/05 11:22:20;;;;;;;5.13;2.65;;;;;;;5.48;100.00;102088.38;5055745;28;20030;-81
2022/12/05 11:24:46;;;;;;;2.65;2.45;;;;;;;5.54;100.00;102081.94;5044012;28;20032;-81
2022/12/05 11:27:14;;;;;;;2.53;2.13;;;;;;;5.66;100.00;102101.34;5058138;28;20037;-83
2022/12/05 11:29:40;;;;;;;5.47;3.03;;;;;;;5.71;100.00;102099.31;5059982;28;20052;-81
2022/12/05 11:32:17;;;;;;;2.47;2.28;;;;;;;5.68;100.00;102083.75;5058808;28;20579;-82
2022/12/05 11:34:53;;;;;;;2.30;2.10;;;;;;;5.71;100.00;102081.81;5059189;28;20950;-82
2022/12/05 11:37:25;;;;;;;5.97;3.38;;;;;;;5.72;100.00;102093.16;5057998;28;20024;-81
2022/12/05 11:39:51;;;;;;;3.40;2.47;;;;;;;5.71;100.00;102088.84;5057519;28;20028;-81
2022/12/05 11:43:01;;;;;;;1.50;1.40;;;;;;;5.56;100.00;102075.69;5058542;28;20028;-81
2022/12/05 11:45:35;;;;;;;1.77;1.67;;;;;;;5.61;100.00;102087.69;5054333;28;20094;-81
2022/12/05 11:48:16;;;;;;;2.92;1.85;;;;;;;5.66;100.00;102078.63;5056687;28;20036;-82
2022/12/05 11:51:05;;;;;;;3.60;3.30;;;;;;;5.52;100.00;102089.03;5058433;28;20090;-80